Bayshore, New York
Current Conditions -  °F | °C
As of 12:53 PM on Thursday 18 Dec 2014 (Local Time) from KFRG Reporting Station
Broken Clouds Broken Clouds  
Wind Chill:   Ceiling: 3900
Heat Index:   Visibility: 10mi
Dew Point: -4°   Wind: 10mph
Humidity: 51%   Direction: 300°WNW
Pressure: 29.93"   Gusts: 24mph
Location:  40.7379°N, 73.2632°W
Report Text: KFRG 181753Z 30009G21KT 10SM BKN039 05/M04 A2993 RMK AO2 SLP136 T00501044 10061 20028 57016
Loading
Personal Weather Stations






























Interactive Weather Map New forecast layout! Learn more

10-Day Weather Forecast

Advertisements
Track Severe Weather on mobile